Time;durP1;ratioP1;P1;durP2;ratioP2;P2;SDS_P1;SDS_P2;PMS_P1;PMS_P2;Temp;Humidity;BMP_temperature;BMP_pressure;BME280_temperature;BME280_humidity;BME280_pressure;Samples;Min_cycle;Max_cycle;Signal;HPM_P1;HPM_P2
2022/06/02 00:00:07;;;;;;;1.90;1.05;;;;;;;17.51;44.19;99243.31;5223128;28;20402;-69
2022/06/02 00:03:35;;;;;;;3.05;1.20;;;;;;;17.51;44.22;99249.50;5202614;28;20543;-69
2022/06/02 00:06:35;;;;;;;2.95;0.88;;;;;;;17.52;44.14;99258.41;5207921;28;20431;-69
2022/06/02 00:09:47;;;;;;;1.38;0.70;;;;;;;17.46;44.49;99259.13;5208186;28;20072;-69
2022/06/02 00:12:47;;;;;;;2.72;0.70;;;;;;;17.38;44.66;99249.28;5209542;28;20098;-70
2022/06/02 00:15:43;;;;;;;2.95;0.93;;;;;;;17.35;43.68;99265.72;5222758;28;20056;-70
2022/06/02 00:18:57;;;;;;;1.75;0.90;;;;;;;17.34;45.41;99261.41;5226164;28;20048;-70
2022/06/02 00:21:53;;;;;;;2.17;0.93;;;;;;;17.33;44.21;99243.66;5211468;28;20067;-70
2022/06/02 00:25:00;;;;;;;2.22;1.17;;;;;;;17.35;44.48;99255.00;5196160;28;20049;-69
2022/06/02 00:28:00;;;;;;;2.65;1.10;;;;;;;17.32;44.73;99264.28;5226085;28;20049;-70
2022/06/02 00:31:02;;;;;;;1.80;1.08;;;;;;;17.45;44.14;99257.44;5226085;28;20529;-69
2022/06/02 00:34:21;;;;;;;4.38;1.33;;;;;;;17.29;44.03;99251.22;5211557;28;20053;-70
2022/06/02 00:37:38;;;;;;;7.53;1.10;;;;;;;17.34;44.79;99254.19;5211147;28;20055;-70
2022/06/02 00:40:31;;;;;;;2.80;1.17;;;;;;;16.87;45.00;99254.41;5226269;28;20466;-70
2022/06/02 00:43:33;;;;;;;2.60;1.00;;;;;;;17.18;45.70;99258.84;5210613;28;20182;-70
2022/06/02 00:46:48;;;;;;;3.47;1.20;;;;;;;17.22;45.86;99265.50;5203957;28;20052;-70
2022/06/02 00:49:56;;;;;;;6.63;1.35;;;;;;;17.21;44.71;99267.34;5213142;28;20055;-70
2022/06/02 00:53:19;;;;;;;1.60;1.30;;;;;;;17.26;45.22;99267.66;5226203;28;20260;-70
2022/06/02 01:00:05;;;;;;;3.65;1.20;;;;;;;16.94;46.33;99267.91;5218117;28;20048;-70
2022/06/02 01:03:11;;;;;;;4.32;1.02;;;;;;;16.94;46.29;99270.59;5225383;28;20150;-70
2022/06/02 01:06:23;;;;;;;3.80;1.40;;;;;;;16.92;46.76;99268.09;5195049;28;20572;-70
2022/06/02 01:09:25;;;;;;;3.03;1.92;;;;;;;16.82;46.28;99271.00;5226082;28;20143;-70
2022/06/02 01:12:18;;;;;;;13.98;1.70;;;;;;;16.61;46.49;99278.78;5211414;28;20059;-70
2022/06/02 01:15:30;;;;;;;2.40;1.30;;;;;;;16.68;46.32;99279.75;5225210;28;20051;-70
2022/06/02 01:18:43;;;;;;;3.75;1.30;;;;;;;16.68;46.78;99279.75;5208000;28;20535;-70
2022/06/02 01:21:52;;;;;;;3.90;1.30;;;;;;;16.57;47.86;99282.81;5225227;28;20045;-70
2022/06/02 01:25:06;;;;;;;3.53;1.52;;;;;;;16.34;48.19;99291.63;5225294;28;20048;-70
2022/06/02 01:28:18;;;;;;;2.80;1.20;;;;;;;16.43;48.00;99293.25;5224725;28;20055;-70
2022/06/02 01:31:30;;;;;;;3.55;1.58;;;;;;;16.31;48.02;99294.66;5224408;28;20110;-70
2022/06/02 01:34:51;;;;;;;2.55;1.30;;;;;;;16.25;48.94;99291.81;5218481;28;20049;-70
2022/06/02 01:38:01;;;;;;;2.60;1.33;;;;;;;16.22;48.02;99290.31;5220182;28;20423;-70
2022/06/02 01:41:03;;;;;;;2.38;1.45;;;;;;;16.15;47.91;99284.00;5209819;28;20133;-70
2022/06/02 01:44:13;;;;;;;4.60;1.30;;;;;;;16.17;49.04;99295.38;5224741;28;20044;-70
2022/06/02 01:47:16;;;;;;;2.35;1.25;;;;;;;16.17;47.93;99301.56;5223924;28;20450;-70
2022/06/02 01:50:28;;;;;;;5.25;1.60;;;;;;;16.08;49.38;99301.75;5225230;28;20049;-70
2022/06/02 01:53:35;;;;;;;3.80;1.77;;;;;;;16.29;48.40;99302.03;5194707;28;20072;-70
2022/06/02 01:56:34;;;;;;;2.70;1.50;;;;;;;16.33;49.64;99307.88;5225171;28;20146;-70
2022/06/02 01:59:40;;;;;;;4.55;1.27;;;;;;;16.05;49.87;99299.41;5225000;28;20526;-70
2022/06/02 02:03:05;;;;;;;3.03;1.52;;;;;;;15.82;50.71;99308.16;5224148;28;20059;-70
2022/06/02 02:06:26;;;;;;;4.15;1.27;;;;;;;15.72;50.51;99308.31;5224820;28;20056;-70
2022/06/02 02:09:32;;;;;;;2.92;1.38;;;;;;;15.63;50.30;99306.66;5196513;28;20057;-70
2022/06/02 02:12:48;;;;;;;5.25;1.55;;;;;;;15.57;52.00;99322.53;5224609;28;20052;-70
2022/06/02 02:15:45;;;;;;;6.57;1.75;;;;;;;15.78;52.25;99322.88;5224564;28;20049;-70
2022/06/02 02:19:03;;;;;;;2.65;1.30;;;;;;;16.00;52.23;99323.19;5224478;28;20059;-70
2022/06/02 02:22:06;;;;;;;3.38;1.70;;;;;;;15.88;52.02;99318.16;5224377;28;20092;-70
2022/06/02 02:25:09;;;;;;;5.38;1.50;;;;;;;15.75;52.29;99320.53;5224107;28;20056;-70
2022/06/02 02:28:15;;;;;;;3.35;1.73;;;;;;;15.64;52.43;99323.53;5208936;28;20049;-70
2022/06/02 02:31:32;;;;;;;3.78;1.27;;;;;;;15.56;52.46;99331.53;5223786;28;20048;-70
2022/06/02 02:34:53;;;;;;;2.90;1.08;;;;;;;15.55;51.50;99324.53;5207529;28;20084;-70
2022/06/02 02:38:08;;;;;;;3.40;1.50;;;;;;;15.55;52.39;99325.34;5224330;28;20270;-70
2022/06/02 02:41:04;;;;;;;5.85;1.33;;;;;;;15.46;52.40;99324.53;5212053;28;20146;-70
2022/06/02 02:44:03;;;;;;;1.75;1.23;;;;;;;15.56;53.04;99329.69;5223631;28;20056;-70
2022/06/02 02:47:00;;;;;;;2.85;1.30;;;;;;;15.70;52.80;99323.72;5211272;28;20044;-70
2022/06/02 02:50:06;;;;;;;2.38;1.30;;;;;;;15.62;52.42;99323.69;5224306;28;20495;-70
2022/06/02 02:52:59;;;;;;;6.15;1.70;;;;;;;15.66;53.62;99321.50;5211170;28;20534;-70
2022/06/02 02:56:00;;;;;;;2.25;1.58;;;;;;;15.64;54.10;99327.03;5223807;28;20052;-70
2022/06/02 02:58:59;;;;;;;2.08;1.23;;;;;;;15.60;53.42;99333.72;5210285;28;20654;-70
2022/06/02 03:02:17;;;;;;;2.47;1.10;;;;;;;15.45;53.46;99322.84;5223540;28;20053;-70
2022/06/02 03:05:15;;;;;;;2.50;1.40;;;;;;;15.48;52.99;99324.38;5223242;28;20116;-70
2022/06/02 03:08:14;;;;;;;3.00;1.58;;;;;;;15.37;52.57;99333.56;5208409;28;20131;-69
2022/06/02 03:11:16;;;;;;;3.30;1.48;;;;;;;15.43;52.33;99326.69;5223444;28;20060;-69
2022/06/02 03:14:27;;;;;;;4.85;1.70;;;;;;;15.57;53.65;99326.03;5222977;28;20052;-69
2022/06/02 03:17:33;;;;;;;7.13;1.50;;;;;;;15.51;53.28;99329.38;5223259;28;20079;-69
2022/06/02 03:20:40;;;;;;;4.20;1.55;;;;;;;15.49;54.25;99339.38;5223418;28;20045;-69
2022/06/02 03:23:46;;;;;;;3.33;1.52;;;;;;;15.54;52.55;99341.56;5223376;28;20166;-69
2022/06/02 03:27:01;;;;;;;4.63;1.52;;;;;;;15.56;53.43;99336.88;5203481;28;20055;-69
2022/06/02 03:29:57;;;;;;;4.00;1.55;;;;;;;15.60;53.65;99340.91;5223392;28;20045;-69
2022/06/02 03:32:59;;;;;;;1.90;1.55;;;;;;;15.50;53.99;99338.41;5222953;28;20565;-69
2022/06/02 03:36:18;;;;;;;4.53;1.85;;;;;;;15.56;54.07;99347.56;5222716;28;20091;-69
2022/06/02 03:39:28;;;;;;;4.20;1.70;;;;;;;15.36;54.33;99353.22;5211544;28;20060;-69
2022/06/02 03:42:24;;;;;;;3.30;1.80;;;;;;;15.14;55.02;99352.06;5206412;28;20060;-69
2022/06/02 03:45:36;;;;;;;3.33;1.90;;;;;;;15.16;55.60;99349.22;5222622;28;20053;-69
2022/06/02 03:49:18;;;;;;;1.75;1.65;;;;;;;15.21;55.34;99352.22;5221525;28;20064;-69
2022/06/02 03:52:28;;;;;;;3.00;1.67;;;;;;;15.15;55.03;99350.22;5200755;28;20056;-69
2022/06/02 03:55:39;;;;;;;4.10;2.03;;;;;;;15.19;55.11;99351.56;5212346;28;20207;-69
2022/06/02 03:58:42;;;;;;;3.33;2.00;;;;;;;15.06;55.97;99357.38;5221976;28;20049;-69
2022/06/02 04:01:41;;;;;;;2.83;1.80;;;;;;;15.00;55.57;99352.69;5222613;28;20059;-69
2022/06/02 04:04:46;;;;;;;2.00;1.80;;;;;;;15.09;56.90;99358.88;5222723;28;20072;-69
2022/06/02 04:08:02;;;;;;;2.42;2.00;;;;;;;15.07;55.89;99355.56;5222325;28;20136;-69
2022/06/02 04:11:14;;;;;;;4.45;1.70;;;;;;;15.00;53.33;99361.53;5215681;28;20071;-68
2022/06/02 04:14:23;;;;;;;2.15;1.88;;;;;;;14.87;55.26;99361.19;5197392;28;20056;-66
2022/06/02 04:17:35;;;;;;;2.63;1.88;;;;;;;14.93;55.36;99363.19;5210713;28;20052;-70
2022/06/02 04:20:53;;;;;;;3.85;1.85;;;;;;;14.94;56.42;99372.88;5222434;28;20049;-71
2022/06/02 04:23:59;;;;;;;4.47;2.10;;;;;;;14.72;56.53;99374.28;5207614;28;20064;-71
2022/06/02 04:27:20;;;;;;;3.30;2.00;;;;;;;14.64;56.70;99371.59;5222194;28;20571;-70
2022/06/02 04:30:20;;;;;;;7.13;2.00;;;;;;;14.77;56.70;99369.31;5222424;28;20568;-71
2022/06/02 04:33:33;;;;;;;5.18;2.63;;;;;;;14.77;56.70;99369.31;5207911;28;20053;-72
2022/06/02 04:36:47;;;;;;;7.00;5.65;;;;;;;14.70;56.87;99380.78;5220423;28;20144;-70
2022/06/02 04:40:25;;;;;;;5.03;3.42;;;;;;;14.71;56.71;99383.31;5213621;28;20054;-71
2022/06/02 04:43:40;;;;;;;6.35;2.80;;;;;;;14.76;57.01;99374.81;5118050;28;20065;-71
2022/06/02 04:46:36;;;;;;;;;;;;;;;14.75;54.46;99375.81;5157720;28;20532;-70
2022/06/02 04:50:17;;;;;;;9.02;2.15;;;;;;;14.77;54.87;99368.50;5222339;28;20017;-70
2022/06/02 04:53:46;;;;;;;8.35;2.13;;;;;;;14.86;54.33;99378.16;5162150;28;20411;-71
2022/06/02 04:57:02;;;;;;;9.20;2.67;;;;;;;14.92;54.38;99379.38;5221268;28;20048;-70
2022/06/02 05:00:17;;;;;;;9.63;2.50;;;;;;;15.02;52.91;99372.88;5222129;28;20064;-69
2022/06/02 05:03:19;;;;;;;17.40;2.90;;;;;;;15.08;54.28;99382.09;5218355;28;20117;-71
2022/06/02 05:06:29;;;;;;;25.38;3.30;;;;;;;15.08;53.68;99387.44;5218042;28;20071;-70
2022/06/02 05:09:30;;;;;;;15.75;2.50;;;;;;;15.03;54.04;99385.25;5222470;28;20057;-69
2022/06/02 05:12:38;;;;;;;9.35;2.15;;;;;;;15.35;52.00;99383.63;5224300;28;20060;-69
2022/06/02 05:15:44;;;;;;;4.22;1.92;;;;;;;15.43;52.05;99389.00;5212796;28;20056;-69
2022/06/02 05:18:52;;;;;;;4.43;1.60;;;;;;;15.26;52.00;99398.84;5224706;28;20076;-69
2022/06/02 05:22:06;;;;;;;10.48;2.08;;;;;;;15.13;51.16;99394.94;5224226;28;20171;-69
2022/06/02 05:25:24;;;;;;;6.10;1.80;;;;;;;15.48;51.84;99404.53;5225185;28;20044;-69
2022/06/02 05:28:35;;;;;;;5.97;1.95;;;;;;;15.61;52.03;99404.06;5225544;28;20086;-70
2022/06/02 05:32:00;;;;;;;4.80;1.80;;;;;;;15.85;51.78;99412.09;5224920;28;20191;-70
2022/06/02 05:35:09;;;;;;;3.40;1.42;;;;;;;15.94;49.73;99397.72;5204868;28;20053;-70
2022/06/02 05:38:29;;;;;;;12.07;2.00;;;;;;;15.95;49.49;99409.25;5203937;28;20053;-70
2022/06/02 05:41:58;;;;;;;11.93;2.20;;;;;;;16.09;49.04;99418.44;5204943;28;20050;-69
2022/06/02 05:45:14;;;;;;;12.98;2.53;;;;;;;16.02;49.02;99420.13;5204712;28;20419;-69
2022/06/02 05:48:24;;;;;;;14.50;2.00;;;;;;;16.13;49.45;99401.06;5223899;28;20064;-69
2022/06/02 05:51:38;;;;;;;9.48;2.10;;;;;;;16.31;49.48;99416.91;5225286;28;20056;-69
2022/06/02 05:54:39;;;;;;;3.38;1.90;;;;;;;16.49;50.38;99430.06;5224860;28;20438;-69
2022/06/02 05:57:53;;;;;;;5.72;2.17;;;;;;;16.47;48.83;99427.56;5225194;28;20057;-69
2022/06/02 06:00:59;;;;;;;5.63;1.70;;;;;;;16.36;47.60;99426.09;5224568;28;20049;-69
2022/06/02 06:03:55;;;;;;;9.55;2.25;;;;;;;16.56;48.63;99428.41;5224828;28;20060;-69
2022/06/02 06:06:54;;;;;;;7.90;2.20;;;;;;;16.59;47.51;99426.22;5225106;28;20079;-69
2022/06/02 06:10:06;;;;;;;12.30;2.00;;;;;;;16.68;47.40;99418.97;5224922;28;20107;-69
2022/06/02 06:13:12;;;;;;;8.85;2.30;;;;;;;16.53;47.43;99421.53;5225291;28;20486;-69
2022/06/02 06:16:16;;;;;;;12.68;2.50;;;;;;;16.53;47.08;99423.38;5224088;28;20049;-68
2022/06/02 06:19:29;;;;;;;11.35;2.50;;;;;;;16.73;47.15;99429.19;5209708;28;20124;-67
2022/06/02 06:22:41;;;;;;;9.60;2.53;;;;;;;16.68;47.83;99440.38;5224321;28;20059;-68
2022/06/02 06:25:53;;;;;;;3.83;1.60;;;;;;;16.88;46.52;99432.81;5224249;28;20138;-68
2022/06/02 06:29:13;;;;;;;5.82;1.90;;;;;;;16.83;46.74;99432.53;5224150;28;20124;-68
2022/06/02 06:32:27;;;;;;;6.63;1.90;;;;;;;16.94;46.75;99402.66;5203813;28;20099;-67
2022/06/02 06:35:35;;;;;;;10.20;2.20;;;;;;;17.27;47.72;99430.13;5222858;28;20424;-69
2022/06/02 06:38:38;;;;;;;3.40;1.80;;;;;;;17.25;44.06;99432.16;5209566;28;20118;-67
2022/06/02 06:41:53;;;;;;;7.55;1.90;;;;;;;17.55;45.09;99432.31;5224036;28;20056;-68
2022/06/02 06:45:01;;;;;;;6.23;2.07;;;;;;;17.69;43.34;99436.91;5206052;28;20197;-68
2022/06/02 06:48:18;;;;;;;6.32;2.10;;;;;;;17.52;44.51;99432.66;5224174;28;20194;-69
2022/06/02 06:51:34;;;;;;;10.65;1.92;;;;;;;17.42;47.46;99430.22;5209168;28;20053;-68
2022/06/02 06:54:52;;;;;;;10.63;2.00;;;;;;;18.33;44.52;99424.97;5224054;28;20518;-68
2022/06/02 06:57:58;;;;;;;5.57;2.13;;;;;;;19.79;40.34;99421.44;5224237;28;20056;-68
2022/06/02 07:01:04;;;;;;;9.30;1.92;;;;;;;19.67;41.20;99431.91;5223976;28;20045;-70
2022/06/02 07:04:10;;;;;;;5.60;1.67;;;;;;;20.40;39.44;99424.44;5208642;28;20060;-67
2022/06/02 07:07:46;;;;;;;10.15;1.80;;;;;;;20.72;38.17;99430.25;5224032;28;20096;-67
2022/06/02 07:11:03;;;;;;;5.07;1.88;;;;;;;21.22;38.55;99430.88;5197386;28;20055;-68
2022/06/02 07:14:03;;;;;;;5.18;1.70;;;;;;;22.42;37.00;99416.56;5223408;28;20370;-67
2022/06/02 07:16:55;;;;;;;5.10;1.70;;;;;;;23.20;34.64;99429.22;5222267;28;20095;-67
2022/06/02 07:20:10;;;;;;;5.45;1.63;;;;;;;23.52;34.80;99423.88;5202165;28;20057;-68
2022/06/02 07:23:13;;;;;;;6.10;1.50;;;;;;;24.10;33.28;99426.41;5202033;28;20045;-68
2022/06/02 07:26:18;;;;;;;4.28;1.38;;;;;;;24.35;32.47;99424.50;5201591;28;20045;-68
2022/06/02 07:29:19;;;;;;;7.95;1.60;;;;;;;25.32;33.10;99423.88;5200831;28;20049;-69
2022/06/02 07:32:21;;;;;;;4.75;1.90;;;;;;;25.27;32.24;99424.59;5205469;28;20056;-69
2022/06/02 07:35:30;;;;;;;6.72;1.83;;;;;;;25.13;31.58;99436.66;5221840;28;20056;-69
2022/06/02 07:38:41;;;;;;;6.53;1.35;;;;;;;23.60;32.28;99418.19;5222484;28;20423;-70
2022/06/02 07:41:53;;;;;;;5.35;1.58;;;;;;;24.62;32.92;99421.56;5221554;28;20426;-70
2022/06/02 07:44:58;;;;;;;6.65;1.65;;;;;;;25.34;31.02;99420.97;5222245;28;20067;-68
2022/06/02 07:48:11;;;;;;;3.90;1.42;;;;;;;26.47;31.21;99415.44;5220942;28;20056;-68
2022/06/02 07:51:11;;;;;;;3.08;1.48;;;;;;;25.82;28.57;99428.22;5206673;28;20434;-69
2022/06/02 07:54:33;;;;;;;7.88;1.30;;;;;;;26.22;29.66;99429.25;5222186;28;20060;-68
2022/06/02 07:58:15;;;;;;;6.63;1.80;;;;;;;26.33;28.27;99424.06;5221987;28;20053;-69
2022/06/02 08:01:31;;;;;;;2.00;0.98;;;;;;;27.20;30.03;99417.81;5221747;28;20432;-69
2022/06/02 08:05:01;;;;;;;2.30;1.40;;;;;;;26.70;28.71;99417.31;5200856;28;20064;-71
2022/06/02 08:07:54;;;;;;;2.00;1.20;;;;;;;26.55;29.04;99416.13;5201071;28;20600;-69
2022/06/02 08:11:04;;;;;;;1.20;1.00;;;;;;;27.00;29.92;99421.75;5186206;28;20057;-69
2022/06/02 08:14:24;;;;;;;4.03;1.33;;;;;;;26.17;29.91;99420.13;5200889;28;20232;-70
2022/06/02 08:17:23;;;;;;;3.75;1.10;;;;;;;25.63;31.77;99425.56;5216993;28;20064;-70
2022/06/02 08:20:36;;;;;;;1.55;1.13;;;;;;;26.68;29.65;99422.16;5220228;28;20057;-69
2022/06/02 08:23:53;;;;;;;4.32;1.52;;;;;;;26.81;30.63;99425.69;5221376;28;20572;-71
2022/06/02 08:27:02;;;;;;;3.05;1.17;;;;;;;26.56;29.11;99429.50;5221674;28;20057;-69
2022/06/02 08:30:12;;;;;;;3.85;1.40;;;;;;;26.86;31.20;99402.16;5205871;28;20059;-69
2022/06/02 08:33:13;;;;;;;2.63;1.10;;;;;;;28.34;28.78;99423.09;5221305;28;20088;-69
2022/06/02 08:36:06;;;;;;;5.28;1.33;;;;;;;27.93;29.63;99413.47;5221807;28;20063;-69
2022/06/02 08:39:13;;;;;;;4.32;1.40;;;;;;;26.88;27.47;99380.94;5223614;28;20132;-69
2022/06/02 08:42:41;;;;;;;5.28;1.40;;;;;;;24.77;31.12;99421.22;5225209;28;20492;-68
2022/06/02 08:45:31;;;;;;;2.08;1.00;;;;;;;25.26;32.13;99425.63;5204365;28;20068;-68
2022/06/02 08:48:43;;;;;;;2.53;1.25;;;;;;;26.86;29.17;99423.91;5204515;28;20513;-69
2022/06/02 08:51:57;;;;;;;4.75;1.42;;;;;;;26.59;28.29;99426.31;5189335;28;20108;-68
2022/06/02 08:55:14;;;;;;;2.70;1.08;;;;;;;27.67;28.53;99415.69;5189263;28;20141;-69
2022/06/02 08:58:33;;;;;;;3.08;1.08;;;;;;;27.95;29.01;99416.78;5219486;28;20056;-69
2022/06/02 09:01:32;;;;;;;1.70;1.17;;;;;;;28.14;27.47;99422.78;5224835;28;20555;-71
2022/06/02 09:04:57;;;;;;;2.22;1.10;;;;;;;28.48;30.47;99419.00;5209425;28;20041;-69
2022/06/02 09:08:03;;;;;;;3.17;1.10;;;;;;;27.46;30.03;99413.69;5209992;28;20130;-69
2022/06/02 09:11:21;;;;;;;3.45;1.00;;;;;;;28.67;27.45;99426.88;5224322;28;20423;-69
2022/06/02 09:14:49;;;;;;;3.50;1.05;;;;;;;28.57;28.28;99425.66;5225007;28;20060;-69
2022/06/02 09:17:53;;;;;;;1.48;1.02;;;;;;;29.00;29.64;99420.53;5209794;28;20514;-69
2022/06/02 09:20:48;;;;;;;2.88;1.17;;;;;;;28.92;27.34;99421.75;5226121;28;20053;-68
2022/06/02 09:23:45;;;;;;;1.90;1.17;;;;;;;28.46;26.54;99414.84;5210650;28;20059;-70
2022/06/02 09:26:58;;;;;;;2.63;0.88;;;;;;;28.34;26.35;99413.03;5225593;28;20127;-69
2022/06/02 09:29:50;;;;;;;4.15;1.33;;;;;;;28.01;27.46;99413.03;5225511;28;20111;-69
2022/06/02 09:33:33;;;;;;;6.35;0.90;;;;;;;28.67;27.67;99414.06;5225314;28;20048;-68
2022/06/02 09:36:41;;;;;;;3.00;1.50;;;;;;;26.70;28.83;99414.59;5225547;28;20053;-70
2022/06/02 09:39:54;;;;;;;3.75;1.00;;;;;;;27.98;26.69;99411.66;5225461;28;20052;-69
2022/06/02 09:43:11;;;;;;;3.55;1.08;;;;;;;27.89;28.77;99413.13;5210477;28;20053;-68
2022/06/02 09:46:27;;;;;;;6.63;1.27;;;;;;;27.37;28.44;99407.81;5225579;28;20060;-69
2022/06/02 09:49:59;;;;;;;4.30;1.27;;;;;;;26.52;30.99;99411.16;5225199;28;20064;-68
2022/06/02 09:53:07;;;;;;;;;;;;;;;27.70;30.58;99411.66;5210629;28;20060;-69
2022/06/02 09:56:36;;;;;;;3.85;1.10;;;;;;;27.47;30.42;99407.97;5225095;28;19927;-69
2022/06/02 09:59:37;;;;;;;3.90;1.10;;;;;;;27.11;29.20;99409.97;5225082;28;20423;-68
2022/06/02 10:02:39;;;;;;;6.30;1.40;;;;;;;27.68;30.52;99397.44;5224920;28;20677;-69
2022/06/02 10:05:43;;;;;;;5.70;0.98;;;;;;;27.25;30.47;99405.13;5225011;28;20056;-69
2022/06/02 10:08:49;;;;;;;4.00;0.85;;;;;;;28.08;30.58;99403.63;5225653;28;20072;-69
2022/06/02 10:11:56;;;;;;;6.85;1.25;;;;;;;27.47;28.63;99402.53;5224910;28;20049;-68
2022/06/02 10:15:27;;;;;;;3.40;1.25;;;;;;;27.24;30.63;99402.66;5223427;28;20052;-72
2022/06/02 10:18:46;;;;;;;3.53;1.30;;;;;;;27.94;30.08;99399.56;5217989;28;20049;-67
2022/06/02 10:21:46;;;;;;;7.55;1.13;;;;;;;28.45;31.25;99400.41;5223928;28;20056;-67
2022/06/02 10:24:49;;;;;;;3.15;0.98;;;;;;;27.72;28.70;99394.00;5218373;28;20446;-70
2022/06/02 10:27:43;;;;;;;4.85;1.10;;;;;;;27.91;28.62;99397.34;5208877;28;20689;-69
2022/06/02 10:31:09;;;;;;;5.72;1.10;;;;;;;28.46;26.63;99390.31;5216014;28;20762;-68
2022/06/02 10:34:19;;;;;;;5.35;1.00;;;;;;;29.06;25.57;99388.66;5219749;28;20055;-70
2022/06/02 10:37:28;;;;;;;5.68;0.90;;;;;;;28.68;26.09;99379.44;5212609;28;20068;-69
2022/06/02 10:40:37;;;;;;;3.33;1.20;;;;;;;28.56;24.64;99387.72;5221467;28;20084;-70
2022/06/02 10:44:05;;;;;;;2.22;0.80;;;;;;;28.16;27.65;99377.03;5223519;28;20119;-70
2022/06/02 10:47:40;;;;;;;2.42;1.10;;;;;;;28.23;28.21;99370.31;5195215;28;20055;-69
2022/06/02 10:50:51;;;;;;;4.43;1.02;;;;;;;28.75;27.96;99372.69;5214980;28;20048;-71
2022/06/02 10:54:12;;;;;;;1.05;0.82;;;;;;;28.73;29.39;99383.03;5202590;28;20123;-70
2022/06/02 10:57:29;;;;;;;1.73;0.82;;;;;;;28.45;25.63;99384.03;5211930;28;20447;-70
2022/06/02 11:00:53;;;;;;;1.90;1.00;;;;;;;27.49;28.14;99366.91;5210334;28;20049;-70
2022/06/02 11:04:13;;;;;;;3.50;0.98;;;;;;;27.28;30.08;99365.69;5220004;28;20045;-70
2022/06/02 11:07:46;;;;;;;4.30;0.90;;;;;;;27.64;26.99;99370.69;5220620;28;20130;-70
2022/06/02 11:10:56;;;;;;;2.15;0.85;;;;;;;27.96;28.56;99340.19;5221367;28;20525;-70
2022/06/02 11:14:19;;;;;;;3.40;0.90;;;;;;;27.46;29.18;99361.94;5222060;28;20068;-70
2022/06/02 11:18:02;;;;;;;1.80;0.90;;;;;;;26.95;30.42;99345.44;5219190;28;20064;-70
2022/06/02 11:21:14;;;;;;;1.48;0.95;;;;;;;26.70;27.60;99341.16;5187837;28;20052;-71
2022/06/02 11:24:24;;;;;;;4.18;0.98;;;;;;;26.57;27.92;99346.84;5221703;28;20056;-69
2022/06/02 11:27:30;;;;;;;2.15;0.95;;;;;;;27.30;29.56;99341.78;5209359;28;20054;-71
2022/06/02 11:30:33;;;;;;;2.40;1.15;;;;;;;27.10;27.88;99348.47;5223248;28;20081;-71
2022/06/02 11:33:49;;;;;;;2.95;0.90;;;;;;;27.44;28.40;99345.84;5225071;28;20064;-71
2022/06/02 11:36:57;;;;;;;2.05;1.00;;;;;;;26.77;31.04;99349.16;5217690;28;20130;-71
2022/06/02 11:40:14;;;;;;;2.92;1.00;;;;;;;26.75;31.64;99332.25;5227885;28;20152;-71
2022/06/02 11:43:24;;;;;;;7.88;1.42;;;;;;;26.06;29.07;99342.13;5233438;28;20101;-71
2022/06/02 11:46:51;;;;;;;2.80;1.08;;;;;;;26.71;29.87;99326.47;5225896;28;20051;-71
2022/06/02 11:50:15;;;;;;;1.25;0.80;;;;;;;26.64;29.06;99328.50;5232846;28;20688;-71
2022/06/02 11:53:36;;;;;;;2.25;0.88;;;;;;;26.98;29.63;99322.34;5233476;28;20055;-71
2022/06/02 11:57:05;;;;;;;3.70;1.38;;;;;;;26.67;28.81;99314.44;5233664;28;20475;-69
2022/06/02 11:59:59;;;;;;;2.85;1.10;;;;;;;26.27;29.28;99308.09;5146150;28;20183;-70
2022/06/02 12:03:28;;;;;;;3.43;1.30;;;;;;;26.05;30.56;99314.13;5222605;28;20569;-69
2022/06/02 12:06:57;;;;;;;6.07;1.20;;;;;;;26.89;31.27;99306.44;5219446;28;20673;-69
2022/06/02 12:09:56;;;;;;;4.78;1.10;;;;;;;27.19;27.86;99312.72;5222732;28;20100;-70
2022/06/02 12:12:59;;;;;;;3.17;1.40;;;;;;;26.86;29.30;99316.97;5221749;28;20499;-70
2022/06/02 12:16:04;;;;;;;1.93;0.80;;;;;;;27.17;29.38;99321.13;5225950;28;20051;-69
2022/06/02 12:19:32;;;;;;;3.70;1.17;;;;;;;26.53;29.97;99310.34;5224727;28;20518;-69
2022/06/02 12:22:44;;;;;;;1.92;1.02;;;;;;;26.64;30.86;99323.06;5226671;28;20041;-69
2022/06/02 12:25:57;;;;;;;1.77;0.90;;;;;;;26.63;29.62;99329.56;5225406;28;20537;-70
2022/06/02 12:29:16;;;;;;;1.40;1.23;;;;;;;26.44;30.18;99319.88;5227029;28;20060;-69
2022/06/02 12:32:29;;;;;;;1.35;1.00;;;;;;;26.21;30.17;99307.97;5226116;28;20079;-69
2022/06/02 12:35:56;;;;;;;7.53;1.20;;;;;;;26.22;31.08;99298.78;5226340;28;20052;-71
2022/06/02 12:39:02;;;;;;;2.47;0.90;;;;;;;26.52;32.26;99299.69;5226408;28;20048;-69
2022/06/02 12:42:14;;;;;;;3.92;1.40;;;;;;;26.02;30.27;99304.56;5226156;28;20052;-68
2022/06/02 12:45:10;;;;;;;2.05;0.88;;;;;;;25.93;31.67;99288.88;5226587;28;20124;-69
2022/06/02 12:48:20;;;;;;;3.03;1.15;;;;;;;26.57;31.51;99295.19;5226079;28;20090;-69
2022/06/02 12:51:27;;;;;;;3.13;1.00;;;;;;;26.27;31.24;99286.34;5225938;28;20056;-70
2022/06/02 12:54:40;;;;;;;3.45;1.00;;;;;;;26.23;31.72;99308.56;5205631;28;20123;-70
2022/06/02 12:57:33;;;;;;;1.67;1.02;;;;;;;26.45;31.43;99314.19;5204879;28;20041;-69
2022/06/02 13:00:42;;;;;;;5.45;1.20;;;;;;;26.23;32.32;99300.41;5226457;28;20052;-70
2022/06/02 13:04:04;;;;;;;4.32;1.10;;;;;;;26.64;30.11;99295.88;5226273;28;20045;-70
2022/06/02 13:07:04;;;;;;;2.05;1.10;;;;;;;26.84;33.67;99297.34;5224945;28;20547;-71
2022/06/02 13:10:09;;;;;;;0.90;0.77;;;;;;;26.62;31.76;99295.28;5218870;28;20056;-71
2022/06/02 13:13:36;;;;;;;1.77;0.90;;;;;;;26.66;32.48;99287.47;5204154;28;20142;-71
2022/06/02 13:16:48;;;;;;;5.45;1.20;;;;;;;25.61;32.89;99299.22;5224335;28;20107;-70
2022/06/02 13:20:03;;;;;;;5.43;0.98;;;;;;;26.37;32.52;99294.72;5233689;28;20045;-71
2022/06/02 13:23:30;;;;;;;5.40;1.00;;;;;;;26.11;31.38;99299.59;5221422;28;20040;-71
2022/06/02 13:26:48;;;;;;;4.07;1.30;;;;;;;26.08;32.69;99294.63;5215907;28;20052;-71
2022/06/02 13:30:09;;;;;;;4.95;1.52;;;;;;;25.58;34.42;99289.63;5210992;28;20056;-72
2022/06/02 13:33:27;;;;;;;3.13;1.15;;;;;;;26.40;32.72;99251.56;5209803;28;20059;-70
2022/06/02 13:36:45;;;;;;;7.53;1.42;;;;;;;26.62;32.71;99270.81;5232113;28;20113;-72
2022/06/02 13:40:12;;;;;;;3.00;1.00;;;;;;;25.84;32.93;99276.72;5223712;28;20110;-71
2022/06/02 13:43:30;;;;;;;5.25;0.95;;;;;;;26.25;32.87;99287.41;5233951;28;20070;-71
2022/06/02 13:46:28;;;;;;;4.00;1.00;;;;;;;26.37;32.68;99283.84;5227115;28;20720;-71
2022/06/02 13:49:59;;;;;;;3.78;1.27;;;;;;;26.17;33.21;99293.22;5238990;28;20052;-72
2022/06/02 13:53:17;;;;;;;6.00;0.93;;;;;;;25.46;34.24;99281.50;5236144;28;20056;-72
2022/06/02 14:00:11;;;;;;;;;;;;;;;26.07;32.63;99281.31;5229008;28;20060;-71
2022/06/02 14:03:34;;;;;;;2.03;1.00;;;;;;;25.96;32.78;99269.34;5211542;28;20401;-71
2022/06/02 14:06:26;;;;;;;4.15;1.25;;;;;;;23.92;34.24;99279.03;5202584;28;20049;-71
2022/06/02 14:10:02;;;;;;;2.85;1.20;;;;;;;24.58;34.00;99276.69;5219610;28;20150;-70
2022/06/02 14:13:15;;;;;;;4.38;1.20;;;;;;;24.79;35.21;99268.03;5223664;28;20135;-70
2022/06/02 14:16:33;;;;;;;2.83;1.00;;;;;;;24.84;33.43;99270.91;5219693;28;20619;-71
2022/06/02 14:19:58;;;;;;;7.72;1.52;;;;;;;25.27;33.40;99260.91;5231341;28;20057;-69
2022/06/02 14:23:11;;;;;;;3.20;1.00;;;;;;;25.33;33.98;99256.44;5226941;28;20063;-70
2022/06/02 14:26:23;;;;;;;3.58;1.25;;;;;;;25.87;33.53;99259.94;5231045;28;20103;-69
2022/06/02 14:29:23;;;;;;;5.25;1.23;;;;;;;25.84;33.39;99260.41;5228421;28;20138;-68
2022/06/02 14:32:23;;;;;;;5.80;1.27;;;;;;;25.98;33.06;99267.25;5233825;28;20127;-69
2022/06/02 14:35:33;;;;;;;3.88;0.93;;;;;;;25.55;33.30;99265.66;5233480;28;20473;-69
2022/06/02 14:38:37;;;;;;;1.42;0.90;;;;;;;25.62;33.04;99254.69;5234869;28;20044;-68
2022/06/02 14:42:04;;;;;;;3.60;1.08;;;;;;;24.94;34.37;99266.81;5212851;28;20055;-69
2022/06/02 14:45:06;;;;;;;2.50;1.10;;;;;;;25.05;34.01;99255.97;5221834;28;20647;-68
2022/06/02 14:48:03;;;;;;;2.92;1.20;;;;;;;25.52;33.49;99260.72;5226230;28;20151;-70
2022/06/02 14:51:15;;;;;;;2.50;1.30;;;;;;;26.18;34.14;99261.44;5232733;28;20137;-69
2022/06/02 14:54:55;;;;;;;6.18;1.38;;;;;;;25.74;33.30;99259.06;5223094;28;20067;-69
2022/06/02 14:58:10;;;;;;;2.80;1.08;;;;;;;25.23;34.37;99257.84;5219268;28;20125;-69
2022/06/02 15:01:28;;;;;;;4.03;1.10;;;;;;;24.99;35.24;99262.34;5218996;28;20060;-71
2022/06/02 15:04:35;;;;;;;2.17;1.10;;;;;;;24.98;35.29;99255.25;5219253;28;20048;-70
2022/06/02 15:08:03;;;;;;;2.38;1.10;;;;;;;25.34;33.81;99247.25;5219265;28;20052;-70